Time;durP1;ratioP1;P1;durP2;ratioP2;P2;SDS_P1;SDS_P2;PMS_P1;PMS_P2;Temp;Humidity;BMP_temperature;BMP_pressure;BME280_temperature;BME280_humidity;BME280_pressure;Samples;Min_cycle;Max_cycle;Signal;HPM_P1;HPM_P2
2021/04/02 04:15:17;;;;;;;22.67;12.60;;;;;;;6.66;79.52;99059.13;6035765;23;20215;-68
2021/04/02 04:17:45;;;;;;;24.05;13.38;;;;;;;6.62;80.20;99059.97;4930424;29;20047;-68
2021/04/02 04:20:12;;;;;;;29.33;14.05;;;;;;;6.67;79.37;99058.28;4936538;29;20086;-68
2021/04/02 04:22:41;;;;;;;22.25;12.55;;;;;;;6.43;80.13;99064.22;4936427;29;20066;-68
2021/04/02 04:25:08;;;;;;;25.98;13.63;;;;;;;6.46;80.36;99063.38;4936705;29;20436;-68
2021/04/02 04:27:38;;;;;;;27.17;13.48;;;;;;;6.47;79.81;99067.66;4917417;29;20058;-68
2021/04/02 04:30:04;;;;;;;25.05;13.52;;;;;;;6.39;80.34;99068.53;4941005;23;20054;-70
2021/04/02 04:32:31;;;;;;;31.35;14.68;;;;;;;6.41;80.27;99065.94;4916007;29;20508;-71
2021/04/02 04:34:59;;;;;;;25.58;13.20;;;;;;;6.35;80.59;99069.34;4916957;29;20129;-71
2021/04/02 04:37:25;;;;;;;34.60;14.05;;;;;;;6.31;80.79;99065.06;4917278;29;20035;-71
2021/04/02 04:39:53;;;;;;;25.23;12.98;;;;;;;6.21;81.13;99068.44;4917248;29;20450;-70
2021/04/02 04:42:19;;;;;;;22.35;12.90;;;;;;;6.26;80.56;99071.03;4917170;29;20028;-71
2021/04/02 04:44:48;;;;;;;23.20;12.75;;;;;;;6.42;80.06;99068.50;4922972;29;20429;-71
2021/04/02 04:47:13;;;;;;;25.58;12.93;;;;;;;6.14;81.43;99071.81;4928014;29;20516;-70
2021/04/02 04:49:39;;;;;;;28.13;13.80;;;;;;;6.15;81.21;99073.56;4936010;29;20122;-71
2021/04/02 04:52:07;;;;;;;26.92;13.60;;;;;;;6.15;81.89;99078.72;4935919;29;20034;-71
2021/04/02 04:54:33;;;;;;;32.13;14.60;;;;;;;6.01;81.76;99072.66;4935949;29;20112;-71
2021/04/02 04:57:00;;;;;;;26.02;14.15;;;;;;;6.13;81.44;99072.69;4936019;29;20045;-71
2021/04/02 04:59:28;;;;;;;23.58;13.00;;;;;;;6.04;81.77;99076.06;4935822;29;20091;-70
2021/04/02 05:01:55;;;;;;;26.42;13.55;;;;;;;5.77;83.23;99081.91;4935645;29;20054;-71
2021/04/02 05:04:24;;;;;;;22.70;12.85;;;;;;;5.74;83.50;99081.03;4935812;29;20042;-70
2021/04/02 05:06:55;;;;;;;31.23;13.02;;;;;;;5.82;83.26;99075.09;4935644;29;20110;-71
2021/04/02 05:09:24;;;;;;;24.45;13.32;;;;;;;5.88;82.86;99077.69;4935666;29;20027;-71
2021/04/02 05:11:51;;;;;;;31.40;13.90;;;;;;;5.96;83.12;99082.91;4935588;29;20106;-71
2021/04/02 05:14:18;;;;;;;30.77;14.52;;;;;;;5.97;82.43;99088.91;4932609;29;20036;-71
2021/04/02 05:16:45;;;;;;;26.67;14.25;;;;;;;5.91;82.02;99085.44;4927612;29;20031;-70
2021/04/02 05:19:15;;;;;;;28.70;13.65;;;;;;;5.83;82.36;99094.78;4935579;29;20060;-70
2021/04/02 05:21:43;;;;;;;28.58;14.18;;;;;;;5.74;82.79;99096.44;4935682;29;20075;-71
2021/04/02 05:24:09;;;;;;;30.40;13.70;;;;;;;5.79;82.57;99095.63;4935475;29;20035;-70
2021/04/02 05:26:34;;;;;;;26.45;13.02;;;;;;;5.92;82.31;99097.44;4935449;29;20439;-71
2021/04/02 05:29:00;;;;;;;24.17;12.57;;;;;;;6.05;81.11;99094.97;4935027;29;20039;-70
2021/04/02 05:31:25;;;;;;;25.02;12.68;;;;;;;6.06;80.84;99099.25;4935274;29;20032;-72
2021/04/02 05:33:51;;;;;;;24.38;11.93;;;;;;;6.17;79.69;99105.28;4935271;29;20027;-72
2021/04/02 05:36:16;;;;;;;21.80;11.93;;;;;;;6.04;80.18;99100.94;4935382;29;20020;-73
2021/04/02 05:38:42;;;;;;;19.52;11.27;;;;;;;6.12;80.37;99101.84;4935118;29;20023;-72
2021/04/02 05:41:12;;;;;;;28.20;11.85;;;;;;;6.19;79.50;99111.31;4935177;29;20042;-72
2021/04/02 05:43:54;;;;;;;22.13;10.73;;;;;;;6.36;79.09;99109.66;4935100;29;20028;-72
2021/04/02 05:46:24;;;;;;;20.63;11.18;;;;;;;6.61;77.66;99108.03;4925841;29;20055;-72
2021/04/02 05:49:02;;;;;;;17.55;10.40;;;;;;;6.86;77.22;99103.81;4934983;29;20019;-72
2021/04/02 05:51:28;;;;;;;15.65;9.68;;;;;;;6.97;75.19;99108.16;4934965;29;20043;-72
2021/04/02 05:53:56;;;;;;;18.90;9.88;;;;;;;7.07;74.99;99115.03;4934978;29;20477;-73
2021/04/02 05:56:21;;;;;;;22.23;10.38;;;;;;;7.16;75.04;99109.91;4934932;29;20074;-73
2021/04/02 05:58:47;;;;;;;15.23;8.40;;;;;;;7.29;72.67;99114.19;4934859;29;20114;-72
2021/04/02 06:01:13;;;;;;;17.85;10.10;;;;;;;7.27;73.49;99108.19;4934825;29;20110;-72
2021/04/02 06:03:39;;;;;;;23.13;11.38;;;;;;;7.52;72.29;99100.44;4934842;29;20032;-72
2021/04/02 06:06:04;;;;;;;18.40;10.35;;;;;;;7.64;71.90;99103.00;4934617;29;20035;-72
2021/04/02 06:08:32;;;;;;;21.23;10.27;;;;;;;7.86;71.16;99104.69;4934844;29;20396;-72
2021/04/02 06:10:58;;;;;;;17.98;9.13;;;;;;;8.15;69.62;99091.72;4934744;29;20023;-72
2021/04/02 06:13:23;;;;;;;14.85;7.82;;;;;;;8.43;68.37;99092.50;4934739;29;20038;-72
2021/04/02 06:15:49;;;;;;;20.88;9.73;;;;;;;9.17;66.78;99089.50;4925516;29;20137;-72
2021/04/02 06:18:14;;;;;;;15.65;10.35;;;;;;;10.22;62.70;99085.06;4933228;29;20023;-72
2021/04/02 06:20:39;;;;;;;15.25;9.10;;;;;;;10.65;60.52;99081.97;4934754;29;20038;-72
2021/04/02 06:23:19;;;;;;;16.13;8.60;;;;;;;11.95;56.78;99072.97;4934632;29;20027;-72
2021/04/02 06:25:51;;;;;;;18.25;7.70;;;;;;;13.27;52.61;99067.56;4934782;29;20105;-72
2021/04/02 06:28:18;;;;;;;10.80;7.05;;;;;;;14.17;49.40;99079.97;4934630;29;20034;-72
2021/04/02 06:30:43;;;;;;;14.50;7.63;;;;;;;14.73;48.21;99074.94;4934746;29;20104;-72
2021/04/02 06:33:11;;;;;;;11.93;6.68;;;;;;;14.84;47.93;99080.66;4934553;29;20049;-73
2021/04/02 06:35:41;;;;;;;9.43;6.45;;;;;;;14.99;46.76;99080.22;4934531;29;20035;-72
2021/04/02 06:38:06;;;;;;;9.55;7.07;;;;;;;16.19;42.88;99080.53;4934891;29;20087;-72
2021/04/02 06:40:32;;;;;;;8.73;6.10;;;;;;;16.07;42.92;99086.22;4934543;29;20436;-72
2021/04/02 06:43:00;;;;;;;9.15;5.90;;;;;;;16.16;42.89;99085.91;4934511;29;20082;-72
2021/04/02 06:45:27;;;;;;;8.57;5.60;;;;;;;16.00;42.69;99092.56;4928256;29;20028;-72
2021/04/02 06:48:07;;;;;;;12.57;5.97;;;;;;;16.13;42.15;99099.06;4930139;29;20512;-72
2021/04/02 06:50:32;;;;;;;7.53;5.72;;;;;;;16.04;43.14;99094.16;4934381;29;20063;-72
2021/04/02 06:52:58;;;;;;;10.20;5.72;;;;;;;17.00;40.73;99095.00;4934419;29;20473;-72
2021/04/02 06:55:25;;;;;;;9.43;5.70;;;;;;;17.83;37.85;99095.13;4934557;29;20050;-72
2021/04/02 06:57:52;;;;;;;10.02;5.45;;;;;;;17.72;37.31;99105.19;4934374;29;20031;-72
2021/04/02 07:00:20;;;;;;;8.05;5.13;;;;;;;17.19;39.61;99106.47;4934230;29;20042;-72
2021/04/02 07:02:47;;;;;;;12.00;5.13;;;;;;;17.45;38.77;99096.69;4932997;29;20028;-72
2021/04/02 07:05:17;;;;;;;7.68;5.72;;;;;;;19.14;35.24;99104.13;4934240;29;20480;-72
2021/04/02 07:08:03;;;;;;;7.65;5.00;;;;;;;18.47;35.73;99104.63;4934362;29;20159;-69
2021/04/02 07:10:30;;;;;;;9.05;5.40;;;;;;;18.62;35.52;99114.41;4934169;29;20023;-68
2021/04/02 07:12:58;;;;;;;8.55;5.50;;;;;;;18.24;35.24;99113.50;4934083;29;20039;-68
2021/04/02 07:15:24;;;;;;;9.00;5.40;;;;;;;17.17;37.03;99117.94;4928082;29;20024;-67
2021/04/02 07:17:50;;;;;;;8.57;5.15;;;;;;;15.38;41.29;99127.72;4932189;29;20030;-67
2021/04/02 07:20:15;;;;;;;10.10;5.60;;;;;;;14.82;42.68;99126.84;4937564;29;20070;-67
2021/04/02 07:22:42;;;;;;;9.45;6.28;;;;;;;14.77;43.59;99123.50;4937708;29;20385;-68
2021/04/02 07:25:09;;;;;;;11.25;6.07;;;;;;;15.93;40.70;99115.47;4937635;29;20401;-67
2021/04/02 07:27:35;;;;;;;9.75;5.80;;;;;;;16.74;38.62;99108.25;4937504;29;20023;-67
2021/04/02 07:30:03;;;;;;;7.82;5.72;;;;;;;16.83;39.19;99107.91;4937191;29;20094;-69
2021/04/02 07:32:30;;;;;;;6.95;5.10;;;;;;;18.50;35.49;99104.47;4937297;29;20669;-67
2021/04/02 07:34:55;;;;;;;15.52;5.50;;;;;;;18.40;35.43;99108.41;4937399;29;20114;-70
2021/04/02 07:37:21;;;;;;;8.52;5.15;;;;;;;19.64;32.74;99100.00;4937453;29;20016;-68
2021/04/02 07:39:48;;;;;;;9.60;5.32;;;;;;;19.16;33.59;99109.31;4937336;29;20057;-68
2021/04/02 07:42:14;;;;;;;6.75;4.82;;;;;;;19.94;32.68;99102.88;4937195;29;20035;-68
2021/04/02 07:44:48;;;;;;;8.38;4.85;;;;;;;20.19;32.72;99100.66;4934326;29;20024;-68
2021/04/02 07:47:13;;;;;;;10.52;5.35;;;;;;;19.42;33.24;99113.31;4929264;29;20098;-68
2021/04/02 07:49:57;;;;;;;7.95;5.20;;;;;;;19.07;33.57;99109.75;4937193;29;20473;-68
2021/04/02 07:52:38;;;;;;;10.25;4.90;;;;;;;18.99;33.83;99110.09;4937003;29;20028;-68
2021/04/02 07:55:08;;;;;;;12.73;5.93;;;;;;;18.49;33.99;99108.00;4937042;29;20060;-68
2021/04/02 07:57:55;;;;;;;8.48;5.63;;;;;;;16.28;38.35;99120.34;4937257;29;20450;-68
2021/04/02 08:00:25;;;;;;;9.32;5.55;;;;;;;17.68;36.98;99114.09;4936984;29;20031;-68
2021/04/02 08:03:11;;;;;;;9.73;5.93;;;;;;;19.42;33.93;99110.69;4936897;29;20048;-68
2021/04/02 08:05:38;;;;;;;12.55;6.07;;;;;;;18.61;34.87;99110.06;4935611;29;20027;-68
2021/04/02 08:08:07;;;;;;;11.15;6.03;;;;;;;20.60;31.50;99107.31;4936940;29;20059;-69
2021/04/02 08:10:33;;;;;;;;;;;;;;;19.63;33.10;99117.56;4937224;29;20035;-73
2021/04/02 08:12:58;;;;;;;11.20;5.95;;;;;;;21.19;30.43;99106.69;4936767;29;19911;-74
2021/04/02 08:15:23;;;;;;;11.68;6.50;;;;;;;18.05;34.45;99121.31;4930621;29;20117;-74
2021/04/02 08:17:49;;;;;;;12.02;6.40;;;;;;;18.44;35.35;99115.22;4931780;29;20075;-72
2021/04/02 08:20:19;;;;;;;9.82;5.72;;;;;;;20.93;30.83;99110.75;4936557;29;20027;-71
2021/04/02 08:22:47;;;;;;;9.52;5.85;;;;;;;20.66;30.99;99117.56;4936642;29;20039;-71
2021/04/02 08:25:15;;;;;;;8.23;5.82;;;;;;;18.04;34.59;99124.84;4936693;29;20027;-71
2021/04/02 08:27:42;;;;;;;8.15;6.15;;;;;;;19.69;33.17;99119.88;4936096;29;20560;-71
2021/04/02 08:30:12;;;;;;;11.05;5.60;;;;;;;21.15;29.88;99110.44;4936277;29;20062;-71
2021/04/02 08:32:42;;;;;;;9.65;6.55;;;;;;;20.69;30.58;99112.94;4936101;29;20028;-71
2021/04/02 08:35:10;;;;;;;6.68;5.38;;;;;;;22.17;28.85;99106.31;4936580;29;20031;-71
2021/04/02 08:37:35;;;;;;;10.75;5.40;;;;;;;21.27;30.18;99115.03;4936437;29;20028;-70
2021/04/02 08:40:13;;;;;;;9.13;6.50;;;;;;;19.06;33.35;99127.28;4936234;29;20027;-71
2021/04/02 08:42:38;;;;;;;10.68;5.18;;;;;;;22.84;28.01;99111.91;4936124;29;20031;-71
2021/04/02 08:45:09;;;;;;;7.13;5.38;;;;;;;21.80;29.16;99108.47;4932705;29;20034;-69
2021/04/02 08:47:38;;;;;;;11.23;6.57;;;;;;;18.18;34.83;99125.13;4929252;29;20119;-69
2021/04/02 08:50:06;;;;;;;9.32;6.38;;;;;;;17.93;36.40;99124.44;4936117;29;20024;-69
2021/04/02 08:52:32;;;;;;;12.98;6.93;;;;;;;16.32;38.91;99135.03;4935829;29;20067;-68
2021/04/02 08:54:59;;;;;;;13.57;7.55;;;;;;;14.09;45.21;99135.78;4934852;29;20102;-68
2021/04/02 08:57:28;;;;;;;8.60;7.22;;;;;;;13.35;45.72;99139.38;4935776;29;20036;-68
2021/04/02 08:59:54;;;;;;;16.05;8.40;;;;;;;11.01;52.56;99154.03;4935902;29;20124;-68
2021/04/02 09:02:20;;;;;;;14.80;9.20;;;;;;;11.31;52.98;99152.75;4935587;29;20042;-68
2021/04/02 09:04:48;;;;;;;12.95;8.93;;;;;;;10.86;54.62;99154.25;4935894;29;20103;-68
2021/04/02 09:07:14;;;;;;;16.20;9.35;;;;;;;11.27;53.06;99150.22;4935674;29;20470;-68
2021/04/02 09:09:42;;;;;;;14.68;8.85;;;;;;;11.47;52.62;99145.59;4935676;29;20028;-71
2021/04/02 09:12:16;;;;;;;14.82;9.30;;;;;;;11.45;52.25;99143.88;4935370;29;20133;-72
2021/04/02 09:14:49;;;;;;;10.32;8.30;;;;;;;14.44;44.79;99123.53;4932793;29;20016;-71
2021/04/02 09:17:20;;;;;;;15.48;8.23;;;;;;;15.75;41.49;99117.84;4927461;29;20107;-71
2021/04/02 09:19:46;;;;;;;10.48;7.68;;;;;;;19.85;34.32;99109.44;4935550;29;20031;-71
2021/04/02 09:22:13;;;;;;;11.45;6.90;;;;;;;20.17;32.54;99110.44;4935341;29;20032;-71
2021/04/02 09:24:40;;;;;;;10.23;6.95;;;;;;;23.03;27.10;99111.63;4935412;29;20064;-71
2021/04/02 09:27:11;;;;;;;14.00;7.80;;;;;;;18.86;32.97;99122.13;4935323;29;20028;-73
2021/04/02 09:29:36;;;;;;;13.02;7.82;;;;;;;15.36;41.16;99136.47;4935341;29;20031;-72
2021/04/02 09:32:03;;;;;;;9.82;7.82;;;;;;;15.44;39.99;99131.88;4935123;29;20033;-72
2021/04/02 09:34:29;;;;;;;11.48;8.48;;;;;;;14.14;42.16;99135.66;4935349;29;20028;-72
2021/04/02 09:36:55;;;;;;;11.55;8.40;;;;;;;13.27;45.99;99132.63;4935127;29;20106;-72
2021/04/02 09:39:25;;;;;;;10.93;7.65;;;;;;;18.68;34.53;99108.91;4927970;29;20123;-72
2021/04/02 09:41:56;;;;;;;11.23;6.95;;;;;;;21.88;29.08;99104.53;4915848;29;20423;-72
2021/04/02 09:44:25;;;;;;;10.65;7.10;;;;;;;18.55;34.22;99112.13;4918164;29;20067;-72
2021/04/02 09:46:51;;;;;;;9.23;7.23;;;;;;;17.87;34.85;99119.47;4926871;29;20633;-72
2021/04/02 09:49:21;;;;;;;11.82;8.45;;;;;;;15.98;38.94;99128.38;4934995;29;20034;-72
2021/04/02 09:51:54;;;;;;;13.32;9.27;;;;;;;12.44;48.00;99142.19;4934757;29;20122;-72
2021/04/02 09:54:21;;;;;;;13.13;9.77;;;;;;;13.63;46.06;99130.88;4935022;29;20032;-72
2021/04/02 09:56:48;;;;;;;14.20;7.65;;;;;;;17.01;38.61;99116.81;4935084;29;20036;-72
2021/04/02 09:59:15;;;;;;;10.63;8.07;;;;;;;13.38;45.64;99135.81;4934899;29;20063;-72
2021/04/02 10:01:42;;;;;;;12.63;8.55;;;;;;;13.28;46.38;99131.72;4934683;29;20035;-72
2021/04/02 10:04:08;;;;;;;11.25;8.63;;;;;;;14.58;44.29;99118.81;4934836;29;20412;-72
2021/04/02 10:06:35;;;;;;;11.95;8.48;;;;;;;17.35;37.23;99104.06;4934933;29;20106;-71
2021/04/02 10:09:00;;;;;;;9.02;7.45;;;;;;;17.34;38.41;99109.38;4934838;29;20028;-71
2021/04/02 10:11:27;;;;;;;12.18;7.78;;;;;;;16.00;40.32;99113.47;4906811;29;20020;-71
2021/04/02 10:13:53;;;;;;;12.10;8.55;;;;;;;13.60;44.27;99131.81;4910161;29;20080;-71
2021/04/02 10:16:20;;;;;;;12.68;9.27;;;;;;;14.78;43.61;99115.63;4926145;29;20032;-70
2021/04/02 10:18:48;;;;;;;10.57;7.50;;;;;;;18.46;36.13;99095.00;4917665;29;20020;-71
2021/04/02 10:21:14;;;;;;;9.32;7.60;;;;;;;18.43;35.49;99097.78;4924951;29;20095;-71
2021/04/02 10:23:40;;;;;;;10.57;7.03;;;;;;;18.00;35.28;99104.91;4921711;29;20159;-71
2021/04/02 10:26:05;;;;;;;10.18;7.28;;;;;;;16.51;37.68;99115.16;4931445;29;20075;-71
2021/04/02 10:28:31;;;;;;;10.50;7.78;;;;;;;15.60;39.79;99117.41;4923196;29;20036;-72
2021/04/02 10:30:56;;;;;;;10.60;7.50;;;;;;;17.34;36.92;99099.75;4930052;29;20036;-72
2021/04/02 10:33:22;;;;;;;10.27;7.05;;;;;;;18.47;34.29;99099.38;4931608;29;20055;-72
2021/04/02 10:35:48;;;;;;;8.13;6.70;;;;;;;17.95;35.84;99102.50;4915881;29;20106;-71
2021/04/02 10:38:13;;;;;;;10.13;7.38;;;;;;;19.63;32.12;99093.91;4932083;29;20099;-71
2021/04/02 10:40:39;;;;;;;12.35;6.78;;;;;;;16.56;36.28;99108.00;4921931;29;20032;-72
2021/04/02 10:43:05;;;;;;;8.40;6.85;;;;;;;15.78;37.80;99109.91;4926269;29;20032;-71
2021/04/02 10:45:30;;;;;;;7.43;6.30;;;;;;;16.43;35.92;99106.72;4926354;29;20107;-71
2021/04/02 10:47:56;;;;;;;10.38;6.40;;;;;;;17.17;36.67;99103.06;4925790;29;20397;-72
2021/04/02 10:50:23;;;;;;;11.48;5.63;;;;;;;19.11;31.49;99092.94;4924760;29;20035;-73
2021/04/02 10:52:49;;;;;;;6.38;5.75;;;;;;;21.88;27.80;99078.16;4932697;29;20107;-73
2021/04/02 10:55:14;;;;;;;9.70;5.05;;;;;;;22.55;27.10;99079.38;4922112;29;20095;-73
2021/04/02 10:57:39;;;;;;;5.72;5.10;;;;;;;25.50;24.84;99080.44;4933249;29;20020;-74
2021/04/02 11:00:09;;;;;;;7.53;5.93;;;;;;;18.68;30.47;99098.41;4926748;29;20038;-74
2021/04/02 11:02:34;;;;;;;8.00;6.05;;;;;;;15.56;37.80;99113.19;4925977;29;20057;-73
2021/04/02 11:05:00;;;;;;;7.32;6.10;;;;;;;15.04;39.16;99116.63;4933983;29;20043;-72
2021/04/02 11:07:26;;;;;;;9.30;6.68;;;;;;;14.90;39.51;99104.00;4926689;29;20067;-72
2021/04/02 11:09:53;;;;;;;8.15;6.55;;;;;;;16.39;37.24;99085.09;4931642;29;20020;-72
2021/04/02 11:12:18;;;;;;;8.95;5.63;;;;;;;21.44;29.65;99073.72;4928169;29;20528;-73
2021/04/02 11:14:44;;;;;;;7.68;6.00;;;;;;;19.23;30.16;99090.56;4930185;29;20032;-72
2021/04/02 11:17:09;;;;;;;8.43;5.97;;;;;;;17.13;34.94;99084.91;4928444;29;20031;-71
2021/04/02 11:19:35;;;;;;;8.23;5.43;;;;;;;19.14;30.99;99085.72;4933545;29;20051;-71
2021/04/02 11:22:00;;;;;;;5.80;4.90;;;;;;;22.23;27.25;99063.72;4925854;29;20020;-71
2021/04/02 11:24:25;;;;;;;8.07;5.22;;;;;;;24.17;24.44;99057.31;4926578;29;20028;-71
2021/04/02 11:26:51;;;;;;;8.13;5.13;;;;;;;24.45;24.26;99064.22;4932316;29;20031;-71
2021/04/02 11:29:16;;;;;;;5.45;4.95;;;;;;;25.41;22.65;99062.56;4921373;29;20095;-72
2021/04/02 11:31:42;;;;;;;6.40;5.68;;;;;;;23.54;24.63;99064.19;4932253;29;20749;-73
2021/04/02 11:34:07;;;;;;;5.45;4.70;;;;;;;21.43;27.40;99070.22;4926416;29;20031;-71
2021/04/02 11:36:32;;;;;;;7.30;5.47;;;;;;;20.34;27.40;99074.47;4925555;29;20036;-72
2021/04/02 11:38:58;;;;;;;6.07;5.47;;;;;;;19.15;30.37;99071.69;4926679;29;20031;-71
2021/04/02 11:41:23;;;;;;;7.78;5.32;;;;;;;16.56;35.40;99068.75;4928030;29;20024;-71
2021/04/02 11:43:49;;;;;;;6.65;5.07;;;;;;;18.45;31.81;99059.19;4931292;29;20058;-71
2021/04/02 11:46:15;;;;;;;10.65;6.55;;;;;;;17.67;33.60;99060.84;4932967;29;20047;-71
2021/04/02 11:48:40;;;;;;;8.50;5.80;;;;;;;21.65;27.85;99047.84;4930571;29;20448;-72
2021/04/02 11:51:06;;;;;;;9.82;5.00;;;;;;;22.93;26.13;99047.06;4921310;29;20029;-72
2021/04/02 11:53:31;;;;;;;6.68;4.72;;;;;;;23.94;24.33;99043.88;4933266;29;20493;-72
2021/04/02 11:55:56;;;;;;;7.18;5.38;;;;;;;20.60;30.01;99055.53;4923512;29;20036;-72
2021/04/02 11:58:22;;;;;;;9.15;4.78;;;;;;;22.17;27.57;99045.63;4926610;29;20036;-72
2021/04/02 12:00:47;;;;;;;8.95;5.57;;;;;;;18.86;31.23;99059.13;4931249;29;20047;-72
2021/04/02 12:03:13;;;;;;;6.25;5.65;;;;;;;16.41;35.43;99059.72;4920428;29;20151;-72
2021/04/02 12:05:38;;;;;;;8.27;5.80;;;;;;;20.45;29.13;99035.25;4932223;29;20031;-72
2021/04/02 12:08:04;;;;;;;6.25;5.30;;;;;;;19.34;30.13;99039.25;4930179;29;20039;-73
2021/04/02 12:10:29;;;;;;;6.78;5.53;;;;;;;15.36;36.90;99052.94;4925353;29;20111;-73
2021/04/02 12:12:55;;;;;;;7.05;6.32;;;;;;;14.46;40.33;99046.16;4932023;29;20039;-72
2021/04/02 12:15:20;;;;;;;8.13;6.15;;;;;;;13.90;39.83;99056.41;4928374;29;20512;-72
2021/04/02 12:17:46;;;;;;;8.35;6.00;;;;;;;14.08;40.03;99049.84;4928143;29;20023;-72
2021/04/02 12:20:16;;;;;;;7.68;5.25;;;;;;;15.13;37.63;99049.31;4927709;29;20104;-73
2021/04/02 12:22:42;;;;;;;5.68;4.80;;;;;;;15.06;38.04;99036.50;4930012;29;20038;-72
2021/04/02 12:25:10;;;;;;;7.00;4.70;;;;;;;15.82;36.66;99028.75;4920511;29;20106;-75
2021/04/02 12:27:37;;;;;;;7.40;5.80;;;;;;;15.49;37.39;99043.78;4932037;29;20027;-73
2021/04/02 12:30:05;;;;;;;8.50;6.18;;;;;;;15.88;35.38;99027.69;4924830;29;20035;-72
2021/04/02 12:32:31;;;;;;;5.88;4.78;;;;;;;13.65;37.53;99034.53;4924781;29;20036;-72
2021/04/02 12:34:56;;;;;;;9.38;4.93;;;;;;;15.04;37.11;99028.75;4931893;29;20236;-72
2021/04/02 12:37:21;;;;;;;6.05;5.03;;;;;;;15.13;37.82;99025.84;4920404;29;20075;-73
2021/04/02 12:39:47;;;;;;;5.20;4.70;;;;;;;14.57;37.92;99028.44;4930455;29;20031;-71
2021/04/02 12:42:12;;;;;;;6.40;5.00;;;;;;;15.52;37.00;99014.97;4925751;29;20035;-72
2021/04/02 12:44:37;;;;;;;5.10;4.60;;;;;;;15.46;37.30;99014.31;4928600;29;20028;-72
2021/04/02 12:47:03;;;;;;;7.65;4.28;;;;;;;15.76;37.73;99012.41;4927414;29;20398;-71
2021/04/02 12:49:29;;;;;;;6.90;4.80;;;;;;;14.81;37.60;99005.13;4932462;29;20034;-71
2021/04/02 12:51:54;;;;;;;4.95;4.45;;;;;;;15.11;36.29;99014.56;4923301;29;20055;-71
2021/04/02 12:54:19;;;;;;;4.72;4.25;;;;;;;15.35;37.22;99012.06;4926061;29;20055;-71
2021/04/02 12:56:45;;;;;;;6.18;4.40;;;;;;;14.58;38.17;99001.47;4929887;29;20074;-71
2021/04/02 12:59:10;;;;;;;4.40;4.00;;;;;;;15.45;36.77;98997.78;4919931;29;20129;-71
2021/04/02 13:01:36;;;;;;;6.30;3.60;;;;;;;15.76;37.05;98996.75;4931448;29;20020;-71
2021/04/02 13:04:01;;;;;;;22.70;13.18;;;;;;;16.18;36.48;98986.50;4924010;29;20024;-71
2021/04/02 13:06:26;;;;;;;6.13;5.03;;;;;;;15.90;36.90;98978.81;4924922;29;20524;-72
2021/04/02 13:08:52;;;;;;;4.68;3.83;;;;;;;15.14;37.55;98998.81;4935176;29;20042;-71
2021/04/02 13:11:21;;;;;;;4.60;4.20;;;;;;;13.33;41.03;98987.59;4919652;29;20035;-71
2021/04/02 13:13:46;;;;;;;8.55;5.05;;;;;;;14.07;39.96;98989.06;4929169;29;20055;-71
2021/04/02 13:16:12;;;;;;;5.18;4.32;;;;;;;13.84;39.32;98975.84;4931270;29;20503;-71
2021/04/02 13:18:38;;;;;;;5.32;3.40;;;;;;;14.73;39.40;98975.81;4928784;29;20028;-71
2021/04/02 13:21:04;;;;;;;4.38;3.50;;;;;;;15.26;36.93;98960.16;4919763;29;20031;-71
2021/04/02 13:23:29;;;;;;;3.72;3.10;;;;;;;15.53;36.79;98958.38;4931837;29;20401;-71
2021/04/02 13:25:54;;;;;;;4.10;3.72;;;;;;;15.39;37.08;98954.47;4922709;29;20106;-71
2021/04/02 13:28:20;;;;;;;4.10;3.70;;;;;;;15.57;36.41;98945.16;4925072;29;20024;-71
2021/04/02 13:30:47;;;;;;;4.10;3.67;;;;;;;16.08;35.33;98956.38;4912277;28;20054;-71
2021/04/02 13:33:13;;;;;;;3.70;3.40;;;;;;;15.68;36.64;98953.47;4916328;29;20024;-71
2021/04/02 13:35:38;;;;;;;3.88;3.30;;;;;;;14.95;37.91;98960.34;4930725;29;20039;-71
2021/04/02 13:38:04;;;;;;;3.60;3.30;;;;;;;14.48;38.37;98955.72;4923872;29;20079;-72
2021/04/02 13:40:29;;;;;;;5.07;3.88;;;;;;;14.04;39.36;98963.09;4923880;29;20036;-71
2021/04/02 13:42:55;;;;;;;15.07;9.57;;;;;;;14.78;37.22;98947.81;4930236;29;20023;-71
2021/04/02 13:45:21;;;;;;;4.63;3.22;;;;;;;14.19;38.51;98963.53;4926947;29;20087;-71
2021/04/02 13:47:47;;;;;;;3.55;3.25;;;;;;;14.12;38.92;98948.09;4926694;29;20063;-71
2021/04/02 13:50:16;;;;;;;5.40;3.35;;;;;;;14.50;38.09;98943.47;4926176;29;20023;-72
2021/04/02 13:52:41;;;;;;;3.35;3.00;;;;;;;14.70;37.94;98939.38;4928361;29;20082;-71
2021/04/02 13:55:09;;;;;;;7.82;3.70;;;;;;;15.37;36.93;98931.91;4919055;29;20040;-71
2021/04/02 13:57:34;;;;;;;5.82;3.55;;;;;;;14.83;37.51;98940.69;4924077;29;20039;-71
2021/04/02 14:00:00;;;;;;;3.95;3.60;;;;;;;14.11;39.33;98945.50;4930771;29;20058;-71
2021/04/02 14:02:26;;;;;;;4.75;3.20;;;;;;;14.87;37.97;98931.88;4924089;29;20095;-71
2021/04/02 14:04:52;;;;;;;3.35;3.05;;;;;;;15.65;37.27;98923.97;4929687;29;20035;-71
2021/04/02 14:07:18;;;;;;;3.38;3.08;;;;;;;16.02;35.72;98925.25;4923604;29;20051;-71
2021/04/02 14:09:45;;;;;;;6.38;3.30;;;;;;;15.38;36.37;98923.19;4929312;29;20067;-71
2021/04/02 14:12:10;;;;;;;3.38;3.08;;;;;;;15.05;37.47;98926.06;4924141;29;20078;-71
2021/04/02 14:14:36;;;;;;;3.58;3.28;;;;;;;15.43;37.05;98923.88;4926960;29;20020;-71
2021/04/02 14:17:01;;;;;;;3.67;3.15;;;;;;;15.57;36.54;98923.38;4926548;29;20028;-72
2021/04/02 14:19:27;;;;;;;3.63;3.17;;;;;;;15.31;36.68;98925.16;4926297;29;20019;-72
2021/04/02 14:21:53;;;;;;;3.63;2.95;;;;;;;15.77;35.75;98926.16;4926333;29;20024;-72
2021/04/02 14:24:18;;;;;;;4.10;3.70;;;;;;;14.81;37.41;98927.72;4924665;29;20053;-71
2021/04/02 14:26:44;;;;;;;5.22;3.47;;;;;;;14.42;39.07;98929.81;4924052;29;20024;-71
2021/04/02 14:29:10;;;;;;;3.40;3.10;;;;;;;14.90;38.31;98927.41;4937112;29;20442;-72
2021/04/02 14:31:36;;;;;;;3.50;3.00;;;;;;;15.39;35.51;98922.28;4923509;29;20039;-72
2021/04/02 14:34:02;;;;;;;2.92;2.70;;;;;;;14.81;37.86;98922.50;4931022;29;20031;-71
2021/04/02 14:36:27;;;;;;;3.97;2.95;;;;;;;14.67;37.72;98929.91;4930196;29;20434;-71
2021/04/02 14:38:52;;;;;;;5.38;3.60;;;;;;;14.15;38.34;98940.16;4923963;29;20028;-71
2021/04/02 14:41:18;;;;;;;4.30;3.67;;;;;;;14.13;38.28;98931.56;4934701;29;20023;-72
2021/04/02 14:43:43;;;;;;;6.43;3.40;;;;;;;13.90;39.30;98933.97;4923593;29;20405;-72
2021/04/02 14:46:08;;;;;;;4.28;3.88;;;;;;;13.77;40.06;98927.41;4934406;29;20062;-71
2021/04/02 14:48:33;;;;;;;4.10;3.47;;;;;;;14.73;38.48;98919.28;4930847;29;20034;-71
2021/04/02 14:51:00;;;;;;;4.40;3.50;;;;;;;15.12;37.93;98917.09;4923051;29;20028;-71
2021/04/02 14:53:26;;;;;;;4.88;3.25;;;;;;;15.01;37.89;98919.22;4934653;29;20409;-71
2021/04/02 14:55:51;;;;;;;7.15;3.00;;;;;;;14.60;38.98;98912.75;4925113;29;20023;-71
2021/04/02 14:58:17;;;;;;;5.30;2.97;;;;;;;15.29;38.19;98911.31;4928380;29;20043;-71
2021/04/02 15:00:45;;;;;;;4.10;3.35;;;;;;;14.89;37.69;98914.41;4931798;29;20031;-71
2021/04/02 15:03:12;;;;;;;3.33;3.03;;;;;;;14.47;38.67;98922.69;4921963;29;20483;-72
2021/04/02 15:05:37;;;;;;;3.45;3.15;;;;;;;15.14;37.48;98912.69;4933450;29;20023;-72
2021/04/02 15:08:03;;;;;;;4.13;3.42;;;;;;;14.61;38.47;98910.13;4933826;29;20035;-71
2021/04/02 15:10:28;;;;;;;3.03;2.78;;;;;;;15.23;37.10;98908.03;4926576;29;20481;-71
2021/04/02 15:12:54;;;;;;;3.58;3.22;;;;;;;14.74;38.17;98909.69;4932848;29;20028;-71
2021/04/02 15:15:21;;;;;;;4.95;3.20;;;;;;;14.63;38.72;98917.88;4929705;29;20035;-71
2021/04/02 15:17:47;;;;;;;3.22;3.00;;;;;;;14.78;37.80;98904.34;4929403;29;20023;-72
2021/04/02 15:20:13;;;;;;;3.50;3.20;;;;;;;15.11;38.45;98915.41;4928573;29;20028;-71
2021/04/02 15:22:39;;;;;;;4.32;3.40;;;;;;;14.35;39.41;98916.09;4930511;29;20107;-72
2021/04/02 15:25:06;;;;;;;4.88;3.28;;;;;;;14.90;38.30;98910.91;4921539;29;20167;-72
2021/04/02 15:27:35;;;;;;;4.85;3.45;;;;;;;13.95;39.48;98908.66;4906344;29;20106;-72
2021/04/02 15:30:01;;;;;;;4.63;3.17;;;;;;;13.86;40.22;98908.91;4929655;29;20164;-72
2021/04/02 15:32:27;;;;;;;4.05;2.90;;;;;;;13.79;40.63;98912.59;4928953;29;20118;-71
2021/04/02 15:34:53;;;;;;;7.55;2.53;;;;;;;14.23;39.83;98918.25;4922984;29;20024;-72
2021/04/02 15:37:19;;;;;;;3.30;3.00;;;;;;;14.32;40.64;98921.44;4932845;29;20039;-72
2021/04/02 15:39:45;;;;;;;4.10;2.75;;;;;;;14.26;40.66;98915.53;4923356;29;20028;-71
2021/04/02 15:42:11;;;;;;;3.08;2.80;;;;;;;14.38;40.36;98916.00;4928407;29;20030;-71